createdAt,value
2023-01-08T00:00:46.175Z,3.36
2023-01-08T00:03:13.863Z,3.46
2023-01-08T00:05:40.776Z,3.56
2023-01-08T00:08:08.672Z,3.65
2023-01-08T00:10:36.485Z,3.71
2023-01-08T00:13:03.843Z,3.78
2023-01-08T00:15:30.738Z,3.83
2023-01-08T00:17:58.307Z,3.88
2023-01-08T00:20:25.748Z,3.95
2023-01-08T00:22:52.962Z,4.01
2023-01-08T00:25:20.102Z,4.06
2023-01-08T00:27:46.885Z,4.10
2023-01-08T00:30:14.044Z,4.12
2023-01-08T00:32:40.881Z,4.15
2023-01-08T00:35:08.030Z,4.19
2023-01-08T00:37:34.771Z,4.23
2023-01-08T00:40:01.588Z,4.27
2023-01-08T00:42:28.321Z,4.32
2023-01-08T00:44:55.139Z,4.35
2023-01-08T00:47:21.843Z,4.36
2023-01-08T00:49:48.754Z,4.35
2023-01-08T00:52:15.522Z,4.31
2023-01-08T00:54:42.290Z,4.27
2023-01-08T00:57:08.966Z,4.24
2023-01-08T00:59:35.741Z,4.21
2023-01-08T01:02:02.604Z,4.19
2023-01-08T01:04:29.581Z,4.16
2023-01-08T01:06:56.335Z,4.13
2023-01-08T01:09:23.137Z,4.08
2023-01-08T01:11:49.904Z,4.00
2023-01-08T01:14:17.143Z,3.95
2023-01-08T01:16:44.165Z,3.88
2023-01-08T01:19:11.105Z,3.85
2023-01-08T01:21:38.055Z,3.82
2023-01-08T01:24:06.776Z,3.78
2023-01-08T01:26:34.794Z,3.74
2023-01-08T01:29:02.156Z,3.70
2023-01-08T01:31:31.113Z,3.63
2023-01-08T01:33:58.377Z,3.58
2023-01-08T01:36:26.499Z,3.52
2023-01-08T01:38:56.074Z,3.47
2023-01-08T01:41:32.575Z,3.43
2023-01-08T01:44:20.703Z,3.39
2023-01-08T01:46:48.495Z,3.36
2023-01-08T01:49:21.273Z,3.30
2023-01-08T01:51:53.335Z,3.25
2023-01-08T01:54:20.982Z,3.20
2023-01-08T01:56:48.400Z,3.16
2023-01-08T01:59:16.197Z,3.13
2023-01-08T02:01:43.423Z,3.12
2023-01-08T02:04:12.479Z,3.12
2023-01-08T02:06:46.596Z,3.12
2023-01-08T02:09:29.552Z,3.13
2023-01-08T02:12:17.603Z,3.11
2023-01-08T02:15:15.096Z,3.05
2023-01-08T02:17:43.905Z,3.03
2023-01-08T02:20:20.241Z,3.00
2023-01-08T02:22:54.589Z,2.97
2023-01-08T02:25:46.007Z,2.95
2023-01-08T02:28:15.538Z,2.94
2023-01-08T02:30:43.337Z,2.92
2023-01-08T02:33:11.789Z,2.88
2023-01-08T02:35:46.189Z,2.85
2023-01-08T02:38:15.904Z,2.79
2023-01-08T02:41:00.912Z,2.80
2023-01-08T02:43:39.426Z,2.80
2023-01-08T02:46:11.662Z,2.79
2023-01-08T02:48:47.394Z,2.77
2023-01-08T02:51:24.194Z,2.74
2023-01-08T02:53:57.804Z,2.70
2023-01-08T02:56:28.605Z,2.64
2023-01-08T02:58:57.066Z,2.58
2023-01-08T03:01:26.768Z,2.53
2023-01-08T03:03:59.163Z,2.50
2023-01-08T03:06:28.838Z,2.50
2023-01-08T03:08:55.682Z,2.49
2023-01-08T03:11:25.081Z,2.47
2023-01-08T03:14:06.941Z,2.43
2023-01-08T03:16:38.163Z,2.38
2023-01-08T03:19:12.938Z,2.33
2023-01-08T03:21:42.557Z,2.30
2023-01-08T03:24:13.579Z,2.28
2023-01-08T03:26:41.894Z,2.27
2023-01-08T03:29:13.747Z,2.25
2023-01-08T03:31:41.548Z,2.25
2023-01-08T03:34:09.409Z,2.23
2023-01-08T03:36:39.227Z,2.19
2023-01-08T03:39:14.243Z,2.17
2023-01-08T03:41:42.302Z,2.14
2023-01-08T03:44:09.128Z,2.12
2023-01-08T03:46:42.323Z,2.11
2023-01-08T03:49:10.334Z,2.12
2023-01-08T03:51:47.131Z,2.10
2023-01-08T03:54:18.245Z,2.07
2023-01-08T03:56:45.699Z,2.03
2023-01-08T03:59:13.696Z,1.96
2023-01-08T04:01:40.632Z,1.95
2023-01-08T04:04:08.499Z,1.92
2023-01-08T04:06:35.248Z,1.86
2023-01-08T04:09:02.332Z,1.85
2023-01-08T04:11:29.217Z,1.85
2023-01-08T04:13:56.084Z,1.85
2023-01-08T04:16:23.659Z,1.83
2023-01-08T04:18:50.584Z,1.81
2023-01-08T04:21:17.710Z,1.78
2023-01-08T04:23:44.638Z,1.75
2023-01-08T04:26:11.603Z,1.71
2023-01-08T04:28:38.437Z,1.66
2023-01-08T04:31:07.361Z,1.67
2023-01-08T04:33:34.365Z,1.71
2023-01-08T04:36:01.297Z,1.71
2023-01-08T04:38:28.057Z,1.69
2023-01-08T04:40:59.306Z,1.65
2023-01-08T04:43:26.794Z,1.61
2023-01-08T04:45:53.626Z,1.56
2023-01-08T04:48:20.397Z,1.50
2023-01-08T04:50:47.176Z,1.46
2023-01-08T04:53:13.899Z,1.42
2023-01-08T04:55:40.769Z,1.40
2023-01-08T04:58:07.501Z,1.35
2023-01-08T05:00:34.673Z,1.35
2023-01-08T05:03:01.550Z,1.33
2023-01-08T05:05:29.041Z,1.28
2023-01-08T05:07:55.782Z,1.21
2023-01-08T05:10:22.548Z,1.13
2023-01-08T05:12:49.364Z,1.08
2023-01-08T05:15:16.254Z,1.08
2023-01-08T05:17:43.015Z,1.11
2023-01-08T05:20:10.170Z,1.15
2023-01-08T05:22:36.896Z,1.17
2023-01-08T05:25:03.769Z,1.16
2023-01-08T05:27:30.583Z,1.13
2023-01-08T05:29:57.329Z,1.06
2023-01-08T05:32:24.090Z,1.02
2023-01-08T05:34:50.970Z,0.96
2023-01-08T05:37:17.688Z,0.88
2023-01-08T05:39:44.433Z,0.78
2023-01-08T05:42:11.150Z,0.73
2023-01-08T05:44:37.908Z,0.68
2023-01-08T05:47:04.766Z,0.67
2023-01-08T05:49:31.515Z,0.67
2023-01-08T05:51:58.209Z,0.67
2023-01-08T05:54:24.999Z,0.66
2023-01-08T05:56:52.015Z,0.62
2023-01-08T05:59:18.905Z,0.56
2023-01-08T06:01:45.724Z,0.50
2023-01-08T06:04:12.579Z,0.46
2023-01-08T06:06:39.368Z,0.41
2023-01-08T06:09:06.193Z,0.38
2023-01-08T06:11:32.950Z,0.35
2023-01-08T06:13:59.714Z,0.32
2023-01-08T06:16:26.452Z,0.26
2023-01-08T06:18:53.403Z,0.24
2023-01-08T06:21:20.273Z,0.19
2023-01-08T06:23:47.020Z,0.12
2023-01-08T06:26:13.760Z,0.03
2023-01-08T06:28:40.533Z,-0.03
2023-01-08T06:31:07.315Z,-0.04
2023-01-08T06:33:34.270Z,-0.10
2023-01-08T06:36:02.500Z,-0.30
2023-01-08T06:38:34.498Z,-0.53
2023-01-08T06:41:06.233Z,-0.70
2023-01-08T06:43:36.284Z,-0.79
2023-01-08T06:46:04.925Z,-0.81
2023-01-08T06:48:31.844Z,-0.87
2023-01-08T06:51:01.052Z,-0.86
2023-01-08T06:53:28.115Z,-0.88
2023-01-08T06:55:57.233Z,-0.85
2023-01-08T06:58:25.432Z,-0.80
2023-01-08T07:00:52.291Z,-0.71
2023-01-08T07:03:19.311Z,-0.64
2023-01-08T07:05:46.378Z,-0.63
2023-01-08T07:08:14.985Z,-0.54
2023-01-08T07:10:42.517Z,-0.48
2023-01-08T07:13:09.694Z,-0.41
2023-01-08T07:15:37.503Z,-0.35
2023-01-08T07:18:06.054Z,-0.30
2023-01-08T07:20:34.042Z,-0.24
2023-01-08T07:23:03.088Z,-0.14
2023-01-08T07:25:30.862Z,-0.02
2023-01-08T07:27:58.817Z,0.14
2023-01-08T07:30:30.305Z,0.32
2023-01-08T07:33:00.597Z,0.49
2023-01-08T07:35:28.328Z,0.64
2023-01-08T07:37:55.899Z,0.77
2023-01-08T07:40:22.733Z,0.90
2023-01-08T07:42:57.605Z,1.03
2023-01-08T07:45:24.340Z,1.16
2023-01-08T07:47:51.103Z,1.28
2023-01-08T07:50:17.834Z,1.46
2023-01-08T07:52:44.683Z,1.66
2023-01-08T07:55:11.471Z,1.88
2023-01-08T07:57:38.381Z,2.09
2023-01-08T08:00:05.954Z,2.28
2023-01-08T08:02:33.899Z,2.45
2023-01-08T08:05:00.817Z,2.66
2023-01-08T08:07:30.728Z,2.87
2023-01-08T08:09:57.733Z,2.98
2023-01-08T08:12:24.685Z,3.12
2023-01-08T08:14:51.515Z,3.35
2023-01-08T08:17:18.445Z,3.47
2023-01-08T08:19:45.738Z,3.76
2023-01-08T08:22:13.758Z,4.08
2023-01-08T08:24:40.989Z,4.39
2023-01-08T08:27:07.900Z,4.74
2023-01-08T08:29:34.701Z,5.05
2023-01-08T08:32:01.417Z,5.35
2023-01-08T08:34:28.176Z,5.62
2023-01-08T08:36:55.089Z,5.94
2023-01-08T08:39:22.003Z,6.30
2023-01-08T08:41:48.899Z,6.61
2023-01-08T08:44:15.663Z,6.87
2023-01-08T08:46:42.468Z,7.02
2023-01-08T08:49:09.265Z,7.09
2023-01-08T08:51:35.999Z,7.09
2023-01-08T08:54:02.767Z,7.10
2023-01-08T08:56:30.097Z,7.12
2023-01-08T08:58:58.181Z,7.22
2023-01-08T09:01:25.336Z,7.39
2023-01-08T09:03:52.128Z,7.44
2023-01-08T09:06:19.019Z,7.39
2023-01-08T09:08:45.899Z,7.12
2023-01-08T09:11:14.390Z,6.79
2023-01-08T09:13:41.446Z,6.57
2023-01-08T09:16:08.230Z,6.39
2023-01-08T09:18:35.144Z,6.38
2023-01-08T09:21:09.342Z,6.26
2023-01-08T09:23:36.056Z,6.07
2023-01-08T09:26:04.590Z,6.07
2023-01-08T09:28:31.606Z,6.17
2023-01-08T09:31:02.958Z,6.30
2023-01-08T09:33:30.520Z,6.41
2023-01-08T09:35:57.633Z,6.53
2023-01-08T09:38:24.505Z,6.69
2023-01-08T09:40:58.268Z,6.88
2023-01-08T09:43:28.546Z,7.14
2023-01-08T09:45:59.681Z,7.46
2023-01-08T09:48:33.213Z,7.81
2023-01-08T09:51:00.188Z,8.17
2023-01-08T09:53:27.489Z,8.42
2023-01-08T09:56:11.085Z,8.62
2023-01-08T09:58:46.495Z,8.67
2023-01-08T10:01:15.728Z,8.67
2023-01-08T10:03:47.676Z,8.66
2023-01-08T10:06:16.690Z,8.69
2023-01-08T10:11:16.883Z,8.86
2023-01-08T10:13:49.607Z,9.10
2023-01-08T10:16:28.657Z,9.30
2023-01-08T10:18:55.530Z,9.38
2023-01-08T10:21:29.967Z,9.73
2023-01-08T10:23:57.121Z,10.01
2023-01-08T10:26:27.829Z,10.23
2023-01-08T10:29:23.942Z,10.50
2023-01-08T10:31:54.063Z,10.76
2023-01-08T10:34:26.711Z,10.80
2023-01-08T10:36:55.122Z,10.67
2023-01-08T10:39:27.383Z,10.66
2023-01-08T10:41:57.933Z,10.79
2023-01-08T10:44:25.775Z,10.77
2023-01-08T10:46:57.767Z,10.68
2023-01-08T10:49:25.557Z,10.59
2023-01-08T10:51:53.981Z,10.48
2023-01-08T10:54:36.638Z,10.35
2023-01-08T10:57:20.695Z,10.25
2023-01-08T10:59:47.479Z,10.14
2023-01-08T11:02:25.775Z,10.02
2023-01-08T11:04:53.065Z,9.92
2023-01-08T11:07:23.197Z,9.84
2023-01-08T11:09:51.906Z,9.74
2023-01-08T11:12:33.171Z,9.67
2023-01-08T11:15:01.318Z,9.59
2023-01-08T11:17:28.415Z,9.54
2023-01-08T11:19:55.973Z,9.49
2023-01-08T11:22:25.293Z,9.44
2023-01-08T11:24:53.752Z,9.49
2023-01-08T11:27:25.023Z,9.64
2023-01-08T11:30:07.112Z,9.88
2023-01-08T11:32:54.927Z,10.02
2023-01-08T11:35:37.243Z,10.16
2023-01-08T11:38:07.044Z,10.31
2023-01-08T11:40:37.882Z,10.40
2023-01-08T11:43:12.231Z,10.56
2023-01-08T11:45:54.695Z,10.72
2023-01-08T11:48:51.281Z,10.74
2023-01-08T11:51:41.048Z,10.66
2023-01-08T11:54:21.870Z,10.70
2023-01-08T11:57:11.437Z,10.88
2023-01-08T12:00:02.750Z,11.10
2023-01-08T12:02:46.096Z,11.46
2023-01-08T12:05:28.237Z,11.90
2023-01-08T12:08:02.766Z,12.26
2023-01-08T12:10:39.200Z,12.60
2023-01-08T12:13:36.702Z,12.97
2023-01-08T12:16:15.757Z,13.44
2023-01-08T12:19:17.530Z,13.81
2023-01-08T12:21:52.174Z,14.06
2023-01-08T12:24:42.202Z,14.48
2023-01-08T12:27:19.422Z,14.92
2023-01-08T12:29:53.537Z,15.27
2023-01-08T12:32:30.232Z,15.56
2023-01-08T12:35:07.789Z,15.85
2023-01-08T12:37:55.329Z,16.04
2023-01-08T12:40:27.068Z,16.18
2023-01-08T12:43:01.109Z,16.36
2023-01-08T12:45:31.140Z,16.60
2023-01-08T12:48:05.502Z,16.71
2023-01-08T12:50:41.159Z,16.74
2023-01-08T12:53:19.122Z,16.75
2023-01-08T12:55:59.929Z,16.90
2023-01-08T12:58:57.911Z,17.09
2023-01-08T13:01:43.922Z,17.14
2023-01-08T13:04:12.199Z,17.20
2023-01-08T13:06:50.592Z,17.17
2023-01-08T13:09:24.037Z,16.79
2023-01-08T13:11:54.071Z,16.52
2023-01-08T13:14:22.055Z,16.29
2023-01-08T13:17:03.959Z,16.12
2023-01-08T13:19:41.438Z,15.91
2023-01-08T13:22:32.429Z,15.73
2023-01-08T13:25:15.387Z,15.50
2023-01-08T13:27:43.175Z,15.12
2023-01-08T13:30:40.676Z,14.89
2023-01-08T13:33:24.095Z,14.64
2023-01-08T13:35:50.877Z,14.58
2023-01-08T13:38:19.865Z,14.47
2023-01-08T13:40:50.064Z,14.36
2023-01-08T13:43:21.251Z,14.34
2023-01-08T13:45:58.725Z,14.14
2023-01-08T13:48:30.984Z,13.55
2023-01-08T13:50:58.112Z,12.97
2023-01-08T13:53:25.288Z,12.47
2023-01-08T13:56:00.282Z,12.02
2023-01-08T13:58:36.361Z,11.59
2023-01-08T14:01:05.003Z,11.22
2023-01-08T14:03:37.561Z,10.86
2023-01-08T14:06:06.173Z,10.57
2023-01-08T14:08:33.480Z,10.19
2023-01-08T14:11:00.595Z,9.74
2023-01-08T14:13:30.669Z,9.18
2023-01-08T14:16:01.092Z,8.58
2023-01-08T14:18:28.553Z,8.00
2023-01-08T14:20:56.245Z,7.67
2023-01-08T14:23:27.868Z,7.44
2023-01-08T14:25:55.092Z,7.19
2023-01-08T14:28:23.157Z,6.92
2023-01-08T14:30:53.721Z,6.61
2023-01-08T14:33:25.152Z,6.30
2023-01-08T14:35:52.356Z,6.12
2023-01-08T14:38:19.153Z,5.98
2023-01-08T14:40:51.231Z,5.82
2023-01-08T14:43:21.182Z,5.59
2023-01-08T14:45:51.318Z,5.29
2023-01-08T14:48:23.256Z,4.98
2023-01-08T14:51:00.960Z,4.82
2023-01-08T14:53:33.282Z,4.67
2023-01-08T14:56:01.221Z,4.57
2023-01-08T14:58:35.947Z,4.47
2023-01-08T15:01:09.719Z,4.40
2023-01-08T15:03:40.703Z,4.30
2023-01-08T15:06:07.697Z,4.06
2023-01-08T15:08:39.979Z,3.85
2023-01-08T15:11:19.817Z,3.75
2023-01-08T15:13:48.324Z,3.65
2023-01-08T15:16:29.605Z,3.54
2023-01-08T15:19:13.720Z,3.41
2023-01-08T15:21:47.815Z,3.26
2023-01-08T15:24:31.769Z,3.11
2023-01-08T15:27:00.257Z,3.05
2023-01-08T15:29:33.815Z,3.03
2023-01-08T15:32:12.286Z,3.00
2023-01-08T15:34:39.821Z,2.90
2023-01-08T15:37:06.878Z,2.79
2023-01-08T15:39:33.781Z,2.74
2023-01-08T15:42:33.939Z,2.68
2023-01-08T15:45:00.691Z,2.61
2023-01-08T15:47:27.457Z,2.59
2023-01-08T15:49:54.686Z,2.61
2023-01-08T15:52:38.157Z,2.56
2023-01-08T15:55:05.331Z,2.54
2023-01-08T15:57:32.386Z,2.53
2023-01-08T15:59:59.345Z,2.50
2023-01-08T16:02:26.301Z,2.46
2023-01-08T16:04:54.549Z,2.43
2023-01-08T16:07:22.004Z,2.37
2023-01-08T16:09:49.031Z,2.29
2023-01-08T16:12:15.835Z,2.27
2023-01-08T16:14:42.617Z,2.26
2023-01-08T16:17:10.115Z,2.26
2023-01-08T16:19:36.969Z,2.25
2023-01-08T16:22:04.810Z,2.19
2023-01-08T16:24:31.736Z,2.09
2023-01-08T16:26:58.483Z,2.01
2023-01-08T16:29:26.040Z,1.94
2023-01-08T16:31:53.056Z,1.88
2023-01-08T16:34:20.003Z,1.88
2023-01-08T16:36:48.294Z,1.86
2023-01-08T16:39:15.156Z,1.82
2023-01-08T16:41:42.237Z,1.78
2023-01-08T16:44:27.056Z,1.76
2023-01-08T16:46:55.360Z,1.73
2023-01-08T16:49:22.416Z,1.70
2023-01-08T16:51:49.222Z,1.65
2023-01-08T16:54:17.093Z,1.61
2023-01-08T16:56:43.962Z,1.58
2023-01-08T16:59:22.196Z,1.56
2023-01-08T17:01:50.096Z,1.53
2023-01-08T17:04:17.172Z,1.53
2023-01-08T17:06:44.084Z,1.55
2023-01-08T17:09:11.826Z,1.55
2023-01-08T17:11:39.280Z,1.55
2023-01-08T17:14:06.093Z,1.51
2023-01-08T17:16:32.994Z,1.47
2023-01-08T17:18:59.841Z,1.46
2023-01-08T17:21:26.662Z,1.45
2023-01-08T17:23:53.440Z,1.47
2023-01-08T17:26:20.414Z,1.44
2023-01-08T17:28:47.476Z,1.45
2023-01-08T17:31:18.564Z,1.44
2023-01-08T17:33:50.536Z,1.47
2023-01-08T17:36:20.847Z,1.49
2023-01-08T17:38:49.844Z,1.51
2023-01-08T17:41:33.324Z,1.52
2023-01-08T17:44:00.428Z,1.56
2023-01-08T17:46:28.109Z,1.62
2023-01-08T17:48:54.897Z,1.71
2023-01-08T17:51:21.784Z,1.76
2023-01-08T17:53:48.608Z,1.81
2023-01-08T17:56:15.346Z,1.87
2023-01-08T17:58:42.056Z,1.87
2023-01-08T18:01:12.467Z,1.90
2023-01-08T18:03:39.461Z,1.94
2023-01-08T18:06:10.197Z,2.00
2023-01-08T18:08:37.558Z,2.05
2023-01-08T18:11:05.913Z,2.13
2023-01-08T18:13:33.746Z,2.23
2023-01-08T18:16:03.916Z,2.33
2023-01-08T18:18:30.798Z,2.41
2023-01-08T18:20:57.689Z,2.46
2023-01-08T18:23:24.836Z,2.51
2023-01-08T18:25:51.667Z,2.56
2023-01-08T18:28:19.310Z,2.60
2023-01-08T18:31:01.426Z,2.66
2023-01-08T18:33:28.336Z,2.74
2023-01-08T18:35:55.277Z,2.80
2023-01-08T18:38:23.418Z,2.87
2023-01-08T18:40:50.280Z,2.91
2023-01-08T18:43:17.235Z,2.92
2023-01-08T18:45:44.184Z,2.92
2023-01-08T18:48:11.394Z,2.92
2023-01-08T18:50:39.240Z,2.92
2023-01-08T18:53:07.055Z,2.94
2023-01-08T18:55:33.973Z,2.97
2023-01-08T18:58:00.958Z,3.00
2023-01-08T19:00:27.850Z,3.02
2023-01-08T19:02:55.746Z,3.02
2023-01-08T19:05:23.573Z,3.06
2023-01-08T19:07:50.692Z,3.05
2023-01-08T19:10:17.766Z,3.05
2023-01-08T19:12:44.933Z,3.05
2023-01-08T19:15:12.272Z,3.06
2023-01-08T19:17:39.954Z,3.10
2023-01-08T19:20:07.722Z,3.15
2023-01-08T19:22:34.929Z,3.17
2023-01-08T19:25:01.713Z,3.19
2023-01-08T19:27:28.544Z,3.19
2023-01-08T19:29:55.741Z,3.17
2023-01-08T19:32:39.406Z,3.14
2023-01-08T19:35:06.831Z,3.12
2023-01-08T19:37:34.217Z,3.10
2023-01-08T19:40:02.391Z,3.10
2023-01-08T19:42:44.654Z,3.10
2023-01-08T19:45:11.591Z,3.12
2023-01-08T19:47:38.391Z,3.12
2023-01-08T19:50:06.393Z,3.10
2023-01-08T19:52:33.235Z,3.11
2023-01-08T19:55:01.568Z,3.11
2023-01-08T19:57:28.725Z,3.13
2023-01-08T19:59:55.572Z,3.15
2023-01-08T20:02:22.811Z,3.18
2023-01-08T20:04:49.736Z,3.19
2023-01-08T20:07:16.461Z,3.20
2023-01-08T20:09:43.690Z,3.22
2023-01-08T20:12:11.197Z,3.19
2023-01-08T20:14:38.127Z,3.16
2023-01-08T20:17:05.159Z,3.17
2023-01-08T20:19:32.132Z,3.20
2023-01-08T20:21:59.240Z,3.28
2023-01-08T20:24:26.250Z,3.34
2023-01-08T20:27:08.700Z,3.41
2023-01-08T20:29:36.003Z,3.46
2023-01-08T20:32:04.953Z,3.50
2023-01-08T20:34:32.635Z,3.51
2023-01-08T20:37:00.199Z,3.52
2023-01-08T20:39:27.414Z,3.52
2023-01-08T20:42:03.711Z,3.55
2023-01-08T20:44:33.180Z,3.57
2023-01-08T20:47:01.032Z,3.59
2023-01-08T20:49:28.011Z,3.63
2023-01-08T20:51:59.919Z,3.66
2023-01-08T20:54:29.105Z,3.66
2023-01-08T20:56:57.477Z,3.65
2023-01-08T20:59:24.929Z,3.66
2023-01-08T21:01:52.823Z,3.66
2023-01-08T21:04:20.812Z,3.71
2023-01-08T21:06:47.873Z,3.76
2023-01-08T21:09:16.636Z,3.82
2023-01-08T21:11:43.761Z,3.88
2023-01-08T21:14:11.191Z,3.94
2023-01-08T21:16:40.727Z,3.98
2023-01-08T21:19:10.495Z,3.98
2023-01-08T21:21:40.157Z,4.00
2023-01-08T21:24:09.266Z,4.03
2023-01-08T21:26:39.212Z,4.07
2023-01-08T21:29:07.524Z,4.12
2023-01-08T21:31:35.185Z,4.13
2023-01-08T21:34:03.621Z,4.14
2023-01-08T21:36:31.921Z,4.15
2023-01-08T21:39:00.457Z,4.15
2023-01-08T21:41:43.850Z,4.17
2023-01-08T21:44:29.269Z,4.18
2023-01-08T21:46:58.206Z,4.22
2023-01-08T21:49:25.624Z,4.24
2023-01-08T21:52:08.128Z,4.24
2023-01-08T21:54:34.895Z,4.25
2023-01-08T21:57:01.653Z,4.25
2023-01-08T21:59:28.412Z,4.22
2023-01-08T22:01:55.238Z,4.19
2023-01-08T22:04:22.161Z,4.17
2023-01-08T22:06:48.987Z,4.17
2023-01-08T22:09:15.714Z,4.16
2023-01-08T22:11:42.457Z,4.16
2023-01-08T22:14:09.475Z,4.18
2023-01-08T22:16:36.272Z,4.20
2023-01-08T22:19:03.525Z,4.20
2023-01-08T22:21:30.347Z,4.22
2023-01-08T22:23:57.111Z,4.25
2023-01-08T22:26:24.269Z,4.29
2023-01-08T22:28:51.149Z,4.38
2023-01-08T22:31:17.981Z,4.49
2023-01-08T22:33:44.909Z,4.59
2023-01-08T22:36:13.792Z,4.68
2023-01-08T22:38:40.907Z,4.78
2023-01-08T22:41:15.941Z,4.86
2023-01-08T22:43:42.800Z,4.92
2023-01-08T22:46:12.422Z,4.96
2023-01-08T22:48:39.803Z,5.02
2023-01-08T22:51:06.706Z,5.09
2023-01-08T22:53:33.843Z,5.15
2023-01-08T22:56:00.617Z,5.23
2023-01-08T22:58:28.210Z,5.33
2023-01-08T23:00:55.001Z,5.40
2023-01-08T23:03:21.785Z,5.44
2023-01-08T23:05:48.513Z,5.46
2023-01-08T23:08:15.293Z,5.47
2023-01-08T23:10:42.684Z,5.44
2023-01-08T23:13:09.426Z,5.41
2023-01-08T23:15:36.367Z,5.39
2023-01-08T23:18:03.220Z,5.41
2023-01-08T23:20:30.001Z,5.43
2023-01-08T23:22:56.724Z,5.44
2023-01-08T23:25:23.722Z,5.46
2023-01-08T23:27:51.385Z,5.45
2023-01-08T23:30:18.255Z,5.44
2023-01-08T23:32:45.387Z,5.42
2023-01-08T23:35:12.199Z,5.40
2023-01-08T23:40:23.298Z,5.40
2023-01-08T23:42:50.002Z,5.39
2023-01-08T23:45:16.851Z,5.39
2023-01-08T23:47:43.655Z,5.39
2023-01-08T23:50:10.908Z,5.36
2023-01-08T23:52:37.695Z,5.33
2023-01-08T23:55:04.939Z,5.28
2023-01-08T23:57:31.713Z,5.23
2023-01-08T23:59:58.569Z,5.22
